sensor_id;sensor_type;location;lat;lon;timestamp;pressure;altitude;pressure_sealevel;temperature;humidity
59190;BME280;50749;51.636;4.948;2023-08-31T00:02:17;100902.00;;;19.10;55.81
59190;BME280;50749;51.636;4.948;2023-08-31T00:04:44;100903.16;;;19.09;56.10
59190;BME280;50749;51.636;4.948;2023-08-31T00:07:10;100909.50;;;19.09;56.04
59190;BME280;50749;51.636;4.948;2023-08-31T00:09:39;100904.31;;;19.08;55.85
59190;BME280;50749;51.636;4.948;2023-08-31T00:12:05;100910.69;;;19.08;56.15
59190;BME280;50749;51.636;4.948;2023-08-31T00:14:31;100904.31;;;19.08;56.09
59190;BME280;50749;51.636;4.948;2023-08-31T00:16:58;100906.66;;;19.06;56.01
59190;BME280;50749;51.636;4.948;2023-08-31T00:19:24;100899.94;;;19.07;55.99
59190;BME280;50749;51.636;4.948;2023-08-31T00:21:50;100898.34;;;19.06;55.98
59190;BME280;50749;51.636;4.948;2023-08-31T00:24:16;100898.34;;;19.06;55.89
59190;BME280;50749;51.636;4.948;2023-08-31T00:26:41;100901.47;;;19.04;55.98
59190;BME280;50749;51.636;4.948;2023-08-31T00:29:11;100898.69;;;19.04;56.12
59190;BME280;50749;51.636;4.948;2023-08-31T00:31:37;100899.88;;;19.03;56.00
59190;BME280;50749;51.636;4.948;2023-08-31T00:34:03;100899.06;;;19.03;55.95
59190;BME280;50749;51.636;4.948;2023-08-31T00:36:30;100894.69;;;19.02;56.37
59190;BME280;50749;51.636;4.948;2023-08-31T00:38:57;100893.09;;;19.01;56.02
59190;BME280;50749;51.636;4.948;2023-08-31T00:41:23;100891.09;;;19.01;56.31
59190;BME280;50749;51.636;4.948;2023-08-31T00:43:49;100890.69;;;18.99;56.12
59190;BME280;50749;51.636;4.948;2023-08-31T00:46:14;100889.53;;;19.00;56.15
59190;BME280;50749;51.636;4.948;2023-08-31T00:48:41;100889.88;;;18.99;55.95
59190;BME280;50749;51.636;4.948;2023-08-31T00:51:07;100896.22;;;18.99;56.26
59190;BME280;50749;51.636;4.948;2023-08-31T00:53:34;100902.94;;;18.98;56.09
59190;BME280;50749;51.636;4.948;2023-08-31T00:56:00;100894.63;;;18.98;55.92
59190;BME280;50749;51.636;4.948;2023-08-31T00:58:27;100897.41;;;18.98;55.90
59190;BME280;50749;51.636;4.948;2023-08-31T01:01:24;100891.50;;;19.00;56.30
59190;BME280;50749;51.636;4.948;2023-08-31T01:04:03;100902.13;;;18.98;55.87
59190;BME280;50749;51.636;4.948;2023-08-31T01:09:39;100894.94;;;18.93;56.16
59190;BME280;50749;51.636;4.948;2023-08-31T01:12:12;100900.47;;;18.93;56.31
59190;BME280;50749;51.636;4.948;2023-08-31T01:14:53;100895.72;;;18.93;55.78
59190;BME280;50749;51.636;4.948;2023-08-31T01:17:23;100904.03;;;18.93;56.40
59190;BME280;50749;51.636;4.948;2023-08-31T01:19:51;100910.72;;;18.92;56.11
59190;BME280;50749;51.636;4.948;2023-08-31T01:24:52;100909.13;;;18.91;55.95
59190;BME280;50749;51.636;4.948;2023-08-31T01:27:19;100910.72;;;18.92;56.37
59190;BME280;50749;51.636;4.948;2023-08-31T01:29:46;100915.47;;;18.92;56.29
59190;BME280;50749;51.636;4.948;2023-08-31T01:32:12;100915.81;;;18.90;56.04
59190;BME280;50749;51.636;4.948;2023-08-31T01:34:38;100915.47;;;18.92;56.65
59190;BME280;50749;51.636;4.948;2023-08-31T01:37:14;100924.13;;;18.90;56.15
59190;BME280;50749;51.636;4.948;2023-08-31T01:40:06;100924.94;;;18.91;56.42
59190;BME280;50749;51.636;4.948;2023-08-31T01:42:41;100921.81;;;18.92;56.39
59190;BME280;50749;51.636;4.948;2023-08-31T01:45:11;100926.56;;;18.92;56.23
59190;BME280;50749;51.636;4.948;2023-08-31T01:47:39;100925.75;;;18.91;56.68
59190;BME280;50749;51.636;4.948;2023-08-31T01:50:06;100918.25;;;18.92;56.39
59190;BME280;50749;51.636;4.948;2023-08-31T01:52:32;100919.03;;;18.92;56.16
59190;BME280;50749;51.636;4.948;2023-08-31T01:54:58;100912.69;;;18.92;56.50
59190;BME280;50749;51.636;4.948;2023-08-31T01:57:23;100920.22;;;18.91;56.40
59190;BME280;50749;51.636;4.948;2023-08-31T01:59:49;100914.69;;;18.91;56.69
59190;BME280;50749;51.636;4.948;2023-08-31T02:02:15;100908.25;;;18.87;56.13
59190;BME280;50749;51.636;4.948;2023-08-31T02:04:43;100912.19;;;18.86;56.22
59190;BME280;50749;51.636;4.948;2023-08-31T02:07:08;100914.97;;;18.86;56.49
59190;BME280;50749;51.636;4.948;2023-08-31T02:09:34;100909.78;;;18.85;56.58
59190;BME280;50749;51.636;4.948;2023-08-31T02:12:03;100911.25;;;18.82;56.34
59190;BME280;50749;51.636;4.948;2023-08-31T02:14:30;100909.69;;;18.81;56.84
59190;BME280;50749;51.636;4.948;2023-08-31T02:16:55;100907.63;;;18.78;56.51
59190;BME280;50749;51.636;4.948;2023-08-31T02:19:21;100913.53;;;18.77;56.97
59190;BME280;50749;51.636;4.948;2023-08-31T02:21:47;100909.50;;;18.74;56.79
59190;BME280;50749;51.636;4.948;2023-08-31T02:24:13;100910.22;;;18.71;57.06
59190;BME280;50749;51.636;4.948;2023-08-31T02:26:39;100909.44;;;18.70;56.89
59190;BME280;50749;51.636;4.948;2023-08-31T02:29:05;100905.44;;;18.68;56.97
59190;BME280;50749;51.636;4.948;2023-08-31T02:31:30;100905.44;;;18.68;56.75
59190;BME280;50749;51.636;4.948;2023-08-31T02:33:56;100902.19;;;18.66;57.07
59190;BME280;50749;51.636;4.948;2023-08-31T02:36:22;100903.81;;;18.67;57.18
59190;BME280;50749;51.636;4.948;2023-08-31T02:38:48;100902.19;;;18.66;56.74
59190;BME280;50749;51.636;4.948;2023-08-31T02:41:15;100903.38;;;18.65;56.84
59190;BME280;50749;51.636;4.948;2023-08-31T02:43:42;100910.84;;;18.64;57.02
59190;BME280;50749;51.636;4.948;2023-08-31T02:46:08;100903.31;;;18.61;56.86
59190;BME280;50749;51.636;4.948;2023-08-31T02:48:34;100902.47;;;18.61;57.14
59190;BME280;50749;51.636;4.948;2023-08-31T02:51:00;100900.88;;;18.60;57.02
59190;BME280;50749;51.636;4.948;2023-08-31T02:53:31;100915.88;;;18.59;57.31
59190;BME280;50749;51.636;4.948;2023-08-31T02:55:57;100904.03;;;18.58;56.78
59190;BME280;50749;51.636;4.948;2023-08-31T02:58:23;100916.69;;;18.59;57.03
59190;BME280;50749;51.636;4.948;2023-08-31T03:00:49;100905.97;;;18.57;57.28
59190;BME280;50749;51.636;4.948;2023-08-31T03:03:15;100915.44;;;18.56;57.08
59190;BME280;50749;51.636;4.948;2023-08-31T03:05:41;100911.88;;;18.56;57.06
59190;BME280;50749;51.636;4.948;2023-08-31T03:08:07;100919.72;;;18.54;57.14
59190;BME280;50749;51.636;4.948;2023-08-31T03:10:33;100911.44;;;18.54;56.97
59190;BME280;50749;51.636;4.948;2023-08-31T03:12:59;100910.63;;;18.53;57.01
59190;BME280;50749;51.636;4.948;2023-08-31T03:15:24;100916.53;;;18.52;57.06
59190;BME280;50749;51.636;4.948;2023-08-31T03:17:50;100919.28;;;18.52;56.83
59190;BME280;50749;51.636;4.948;2023-08-31T03:20:16;100916.16;;;18.53;57.42
59190;BME280;50749;51.636;4.948;2023-08-31T03:22:42;100915.03;;;18.54;57.18
59190;BME280;50749;51.636;4.948;2023-08-31T03:25:08;100910.63;;;18.53;57.04
59190;BME280;50749;51.636;4.948;2023-08-31T03:27:34;100918.94;;;18.53;56.98
59190;BME280;50749;51.636;4.948;2023-08-31T03:30:01;100915.38;;;18.53;56.75
59190;BME280;50749;51.636;4.948;2023-08-31T03:32:29;100923.25;;;18.51;57.28
59190;BME280;50749;51.636;4.948;2023-08-31T03:34:54;100926.00;;;18.51;56.96
59190;BME280;50749;51.636;4.948;2023-08-31T03:37:20;100920.84;;;18.49;57.08
59190;BME280;50749;51.636;4.948;2023-08-31T03:39:48;100915.28;;;18.49;57.00
59190;BME280;50749;51.636;4.948;2023-08-31T03:42:13;100913.31;;;18.50;57.07
59190;BME280;50749;51.636;4.948;2023-08-31T03:44:39;100911.34;;;18.50;57.30
59190;BME280;50749;51.636;4.948;2023-08-31T03:47:05;100918.50;;;18.51;57.06
59190;BME280;50749;51.636;4.948;2023-08-31T03:49:31;100922.41;;;18.50;57.21
59190;BME280;50749;51.636;4.948;2023-08-31T03:51:57;100915.28;;;18.49;56.74
59190;BME280;50749;51.636;4.948;2023-08-31T03:54:23;100916.38;;;18.45;56.96
59190;BME280;50749;51.636;4.948;2023-08-31T03:56:49;100914.81;;;18.47;57.12
59190;BME280;50749;51.636;4.948;2023-08-31T03:59:15;100920.47;;;18.51;56.98
59190;BME280;50749;51.636;4.948;2023-08-31T04:01:42;100921.72;;;18.53;57.20
59190;BME280;50749;51.636;4.948;2023-08-31T04:04:07;100923.25;;;18.51;56.84
59190;BME280;50749;51.636;4.948;2023-08-31T04:06:34;100910.63;;;18.53;56.76
59190;BME280;50749;51.636;4.948;2023-08-31T04:09:00;100907.88;;;18.53;56.60
59190;BME280;50749;51.636;4.948;2023-08-31T04:11:26;100914.56;;;18.52;56.68
59190;BME280;50749;51.636;4.948;2023-08-31T04:13:52;100912.97;;;18.51;57.16
59190;BME280;50749;51.636;4.948;2023-08-31T04:16:18;100917.25;;;18.49;56.52
59190;BME280;50749;51.636;4.948;2023-08-31T04:18:44;100916.00;;;18.46;56.82
59190;BME280;50749;51.636;4.948;2023-08-31T04:21:17;100926.66;;;18.44;56.97
59190;BME280;50749;51.636;4.948;2023-08-31T04:23:44;100922.63;;;18.42;57.02
59190;BME280;50749;51.636;4.948;2023-08-31T04:26:13;100930.47;;;18.40;57.28
59190;BME280;50749;51.636;4.948;2023-08-31T04:28:40;100934.75;;;18.37;57.12
59190;BME280;50749;51.636;4.948;2023-08-31T04:31:07;100935.94;;;18.36;56.96
59190;BME280;50749;51.636;4.948;2023-08-31T04:33:37;100939.84;;;18.35;57.27
59190;BME280;50749;51.636;4.948;2023-08-31T04:36:04;100941.00;;;18.34;57.59
59190;BME280;50749;51.636;4.948;2023-08-31T04:38:31;100937.88;;;18.35;57.10
59190;BME280;50749;51.636;4.948;2023-08-31T04:41:01;100939.84;;;18.35;57.50
59190;BME280;50749;51.636;4.948;2023-08-31T04:43:27;100936.66;;;18.33;57.05
59190;BME280;50749;51.636;4.948;2023-08-31T04:45:54;100946.09;;;18.32;57.51
59190;BME280;50749;51.636;4.948;2023-08-31T04:48:20;100950.50;;;18.33;57.10
59190;BME280;50749;51.636;4.948;2023-08-31T04:50:46;100952.06;;;18.34;57.48
59190;BME280;50749;51.636;4.948;2023-08-31T04:53:12;100956.81;;;18.33;57.44
59190;BME280;50749;51.636;4.948;2023-08-31T04:55:38;100956.03;;;18.33;57.10
59190;BME280;50749;51.636;4.948;2023-08-31T04:58:04;100959.94;;;18.32;57.36
59190;BME280;50749;51.636;4.948;2023-08-31T05:00:30;100968.59;;;18.30;57.22
59190;BME280;50749;51.636;4.948;2023-08-31T05:02:56;100966.66;;;18.31;57.32
59190;BME280;50749;51.636;4.948;2023-08-31T05:05:22;100965.84;;;18.30;57.78
59190;BME280;50749;51.636;4.948;2023-08-31T05:07:48;100973.41;;;18.33;57.90
59190;BME280;50749;51.636;4.948;2023-08-31T05:10:14;100972.28;;;18.34;58.52
59190;BME280;50749;51.636;4.948;2023-08-31T05:12:40;100976.63;;;18.35;58.47
59190;BME280;50749;51.636;4.948;2023-08-31T05:15:06;100969.16;;;18.36;58.76
59190;BME280;50749;51.636;4.948;2023-08-31T05:17:32;100976.28;;;18.37;58.72
59190;BME280;50749;51.636;4.948;2023-08-31T05:19:59;100979.03;;;18.37;59.00
59190;BME280;50749;51.636;4.948;2023-08-31T05:22:25;100979.88;;;18.37;58.85
59190;BME280;50749;51.636;4.948;2023-08-31T05:24:51;100975.13;;;18.38;58.69
59190;BME280;50749;51.636;4.948;2023-08-31T05:27:17;100979.88;;;18.37;58.84
59190;BME280;50749;51.636;4.948;2023-08-31T05:29:43;100975.13;;;18.38;58.91
59190;BME280;50749;51.636;4.948;2023-08-31T05:32:08;100984.66;;;18.41;58.94
59190;BME280;50749;51.636;4.948;2023-08-31T05:34:34;100990.56;;;18.39;58.65
59190;BME280;50749;51.636;4.948;2023-08-31T05:37:03;100989.75;;;18.38;59.08
59190;BME280;50749;51.636;4.948;2023-08-31T05:39:33;100998.16;;;18.42;58.87
59190;BME280;50749;51.636;4.948;2023-08-31T05:41:58;101002.53;;;18.43;58.39
59190;BME280;50749;51.636;4.948;2023-08-31T05:44:24;100998.97;;;18.43;58.61
59190;BME280;50749;51.636;4.948;2023-08-31T05:46:50;100998.63;;;18.44;58.56
59190;BME280;50749;51.636;4.948;2023-08-31T05:49:16;101005.31;;;18.43;58.73
59190;BME280;50749;51.636;4.948;2023-08-31T05:51:42;101000.56;;;18.44;59.10
59190;BME280;50749;51.636;4.948;2023-08-31T05:54:08;101010.84;;;18.43;59.19
59190;BME280;50749;51.636;4.948;2023-08-31T05:56:39;101006.09;;;18.44;58.90
59190;BME280;50749;51.636;4.948;2023-08-31T05:59:06;101016.03;;;18.45;58.79
59190;BME280;50749;51.636;4.948;2023-08-31T06:01:32;101005.31;;;18.43;58.88
59190;BME280;50749;51.636;4.948;2023-08-31T06:03:58;101014.41;;;18.44;58.61
59190;BME280;50749;51.636;4.948;2023-08-31T06:06:24;101021.63;;;18.48;58.80
59190;BME280;50749;51.636;4.948;2023-08-31T06:08:51;101014.94;;;18.49;58.70
59190;BME280;50749;51.636;4.948;2023-08-31T06:11:19;101015.84;;;18.53;59.29
59190;BME280;50749;51.636;4.948;2023-08-31T06:13:45;101020.31;;;18.58;58.68
59190;BME280;50749;51.636;4.948;2023-08-31T06:16:10;101016.81;;;18.61;58.76
59190;BME280;50749;51.636;4.948;2023-08-31T06:18:37;101019.69;;;18.65;58.69
59190;BME280;50749;51.636;4.948;2023-08-31T06:21:03;101019.75;;;18.68;58.77
59190;BME280;50749;51.636;4.948;2023-08-31T06:23:29;101023.75;;;18.71;58.53
59190;BME280;50749;51.636;4.948;2023-08-31T06:25:54;101025.81;;;18.74;58.14
59190;BME280;50749;51.636;4.948;2023-08-31T06:28:20;101029.03;;;18.76;58.49
59190;BME280;50749;51.636;4.948;2023-08-31T06:30:46;101032.25;;;18.78;58.29
59190;BME280;50749;51.636;4.948;2023-08-31T06:33:14;101034.31;;;18.81;58.41
59190;BME280;50749;51.636;4.948;2023-08-31T06:35:40;101038.66;;;18.82;58.42
59190;BME280;50749;51.636;4.948;2023-08-31T06:38:08;101035.56;;;18.84;58.32
59190;BME280;50749;51.636;4.948;2023-08-31T06:40:34;101042.38;;;18.86;58.24
59190;BME280;50749;51.636;4.948;2023-08-31T06:43:00;101035.66;;;18.87;58.24
59190;BME280;50749;51.636;4.948;2023-08-31T06:45:26;101031.72;;;18.88;58.62
59190;BME280;50749;51.636;4.948;2023-08-31T06:47:52;101042.09;;;18.91;58.29
59190;BME280;50749;51.636;4.948;2023-08-31T06:50:17;101039.34;;;18.91;58.56
59190;BME280;50749;51.636;4.948;2023-08-31T06:52:43;101042.53;;;18.93;58.38
59190;BME280;50749;51.636;4.948;2023-08-31T06:55:12;101045.75;;;18.96;58.24
59190;BME280;50749;51.636;4.948;2023-08-31T06:57:38;101048.94;;;18.98;58.46
59190;BME280;50749;51.636;4.948;2023-08-31T07:00:04;101047.81;;;18.99;58.36
59190;BME280;50749;51.636;4.948;2023-08-31T07:02:32;101052.63;;;19.02;58.61
59190;BME280;50749;51.636;4.948;2023-08-31T07:04:59;101056.19;;;19.02;58.74
59190;BME280;50749;51.636;4.948;2023-08-31T07:07:26;101068.53;;;19.05;58.68
59190;BME280;50749;51.636;4.948;2023-08-31T07:09:51;101057.16;;;19.10;59.06
59190;BME280;50749;51.636;4.948;2023-08-31T07:12:17;101065.91;;;19.12;58.83
59190;BME280;50749;51.636;4.948;2023-08-31T07:14:43;101073.50;;;19.15;59.47
59190;BME280;50749;51.636;4.948;2023-08-31T07:17:09;101064.47;;;19.18;59.37
59190;BME280;50749;51.636;4.948;2023-08-31T07:19:36;101073.25;;;19.20;59.28
59190;BME280;50749;51.636;4.948;2023-08-31T07:22:03;101071.25;;;19.21;59.40
59190;BME280;50749;51.636;4.948;2023-08-31T07:24:29;101075.28;;;19.23;59.41
59190;BME280;50749;51.636;4.948;2023-08-31T07:26:56;101074.94;;;19.25;59.46
59190;BME280;50749;51.636;4.948;2023-08-31T07:29:21;101074.53;;;19.26;59.01
59190;BME280;50749;51.636;4.948;2023-08-31T07:31:47;101071.06;;;19.29;59.33
59190;BME280;50749;51.636;4.948;2023-08-31T07:34:13;101078.22;;;19.30;59.27
59190;BME280;50749;51.636;4.948;2023-08-31T07:36:39;101082.56;;;19.31;59.05
59190;BME280;50749;51.636;4.948;2023-08-31T07:39:05;101074.00;;;19.37;59.66
59190;BME280;50749;51.636;4.948;2023-08-31T07:41:31;101074.00;;;19.37;59.06
59190;BME280;50749;51.636;4.948;2023-08-31T07:43:56;101077.22;;;19.39;59.26
59190;BME280;50749;51.636;4.948;2023-08-31T07:46:22;101068.91;;;19.39;58.99
59190;BME280;50749;51.636;4.948;2023-08-31T07:48:48;101074.81;;;19.37;58.97
59190;BME280;50749;51.636;4.948;2023-08-31T07:51:16;101074.44;;;19.39;59.27
59190;BME280;50749;51.636;4.948;2023-08-31T07:53:42;101081.22;;;19.41;58.87
59190;BME280;50749;51.636;4.948;2023-08-31T07:56:08;101073.72;;;19.42;59.22
59190;BME280;50749;51.636;4.948;2023-08-31T07:58:33;101078.91;;;19.43;59.61
59190;BME280;50749;51.636;4.948;2023-08-31T08:00:59;101080.50;;;19.44;59.46
59190;BME280;50749;51.636;4.948;2023-08-31T08:03:25;101088.44;;;19.46;59.43
59190;BME280;50749;51.636;4.948;2023-08-31T08:05:51;101094.00;;;19.46;59.35
59190;BME280;50749;51.636;4.948;2023-08-31T08:08:17;101085.69;;;19.46;59.48
59190;BME280;50749;51.636;4.948;2023-08-31T08:10:43;101085.31;;;19.47;59.49
59190;BME280;50749;51.636;4.948;2023-08-31T08:13:09;101092.56;;;19.52;59.83
59190;BME280;50749;51.636;4.948;2023-08-31T08:15:35;101088.59;;;19.53;59.14
59190;BME280;50749;51.636;4.948;2023-08-31T08:18:03;101091.84;;;19.55;59.50
59190;BME280;50749;51.636;4.948;2023-08-31T08:20:31;101097.38;;;19.55;59.53
59190;BME280;50749;51.636;4.948;2023-08-31T08:22:56;101094.59;;;19.55;59.33
59190;BME280;50749;51.636;4.948;2023-08-31T08:25:23;101099.75;;;19.57;59.53
59190;BME280;50749;51.636;4.948;2023-08-31T08:27:50;101096.63;;;19.58;59.34
59190;BME280;50749;51.636;4.948;2023-08-31T08:30:16;101099.03;;;19.60;59.33
59190;BME280;50749;51.636;4.948;2023-08-31T08:32:42;101107.81;;;19.62;59.43
59190;BME280;50749;51.636;4.948;2023-08-31T08:35:08;101102.28;;;19.62;59.35
59190;BME280;50749;51.636;4.948;2023-08-31T08:37:34;101111.03;;;19.64;59.62
59190;BME280;50749;51.636;4.948;2023-08-31T08:40:00;101114.59;;;19.64;59.46
59190;BME280;50749;51.636;4.948;2023-08-31T08:42:29;101115.22;;;19.74;59.47
59190;BME280;50749;51.636;4.948;2023-08-31T08:44:56;101109.56;;;19.70;59.15
59190;BME280;50749;51.636;4.948;2023-08-31T08:47:22;101111.97;;;19.72;59.36
59190;BME280;50749;51.636;4.948;2023-08-31T08:49:48;101111.19;;;19.71;59.37
59190;BME280;50749;51.636;4.948;2023-08-31T08:52:15;101113.94;;;19.71;59.51
59190;BME280;50749;51.636;4.948;2023-08-31T08:54:41;101114.13;;;19.78;59.24
59190;BME280;50749;51.636;4.948;2023-08-31T08:57:07;101116.09;;;19.78;59.37
59190;BME280;50749;51.636;4.948;2023-08-31T08:59:33;101124.41;;;19.78;59.57
59190;BME280;50749;51.636;4.948;2023-08-31T09:01:59;101122.44;;;19.78;59.10
59190;BME280;50749;51.636;4.948;2023-08-31T09:04:25;101123.28;;;19.79;59.51
59190;BME280;50749;51.636;4.948;2023-08-31T09:06:51;101125.69;;;19.80;59.12
59190;BME280;50749;51.636;4.948;2023-08-31T09:09:17;101128.06;;;19.82;59.32
59190;BME280;50749;51.636;4.948;2023-08-31T09:11:47;101129.69;;;19.83;59.44
59190;BME280;50749;51.636;4.948;2023-08-31T09:14:17;101130.47;;;19.83;59.60
59190;BME280;50749;51.636;4.948;2023-08-31T09:16:50;101130.47;;;19.83;59.53
59190;BME280;50749;51.636;4.948;2023-08-31T09:19:20;101132.09;;;19.84;59.13
59190;BME280;50749;51.636;4.948;2023-08-31T09:21:50;101141.75;;;19.91;59.83
59190;BME280;50749;51.636;4.948;2023-08-31T09:24:17;101147.38;;;19.94;59.83
59190;BME280;50749;51.636;4.948;2023-08-31T09:26:44;101141.81;;;19.94;59.58
59190;BME280;50749;51.636;4.948;2023-08-31T09:29:12;101131.50;;;19.95;59.61
59190;BME280;50749;51.636;4.948;2023-08-31T09:31:38;101139.91;;;19.98;60.02
59190;BME280;50749;51.636;4.948;2023-08-31T09:34:07;101136.41;;;20.01;59.77
59190;BME280;50749;51.636;4.948;2023-08-31T09:36:32;101134.78;;;20.00;59.71
59190;BME280;50749;51.636;4.948;2023-08-31T09:38:59;101135.25;;;20.02;59.51
59190;BME280;50749;51.636;4.948;2023-08-31T09:41:26;101136.41;;;20.01;59.53
59190;BME280;50749;51.636;4.948;2023-08-31T09:43:52;101136.41;;;20.01;59.41
59190;BME280;50749;51.636;4.948;2023-08-31T09:46:18;101129.69;;;20.02;58.93
59190;BME280;50749;51.636;4.948;2023-08-31T09:48:45;101125.75;;;20.03;59.22
59190;BME280;50749;51.636;4.948;2023-08-31T09:51:14;101122.97;;;20.03;59.02
59190;BME280;50749;51.636;4.948;2023-08-31T09:53:41;101125.38;;;20.05;58.85
59190;BME280;50749;51.636;4.948;2023-08-31T09:56:08;101125.81;;;20.07;59.01
59190;BME280;50749;51.636;4.948;2023-08-31T09:58:38;101119.09;;;20.08;59.05
59190;BME280;50749;51.636;4.948;2023-08-31T10:01:05;101117.13;;;20.09;58.81
59190;BME280;50749;51.636;4.948;2023-08-31T10:03:31;101116.75;;;20.10;59.25
59190;BME280;50749;51.636;4.948;2023-08-31T10:05:58;101115.97;;;20.10;58.91
59190;BME280;50749;51.636;4.948;2023-08-31T10:08:24;101123.91;;;20.11;59.10
59190;BME280;50749;51.636;4.948;2023-08-31T10:10:52;101121.50;;;20.10;58.92
59190;BME280;50749;51.636;4.948;2023-08-31T10:13:19;101129.47;;;20.11;59.12
59190;BME280;50749;51.636;4.948;2023-08-31T10:15:48;101124.72;;;20.12;58.73
59190;BME280;50749;51.636;4.948;2023-08-31T10:18:15;101126.31;;;20.13;58.53
59190;BME280;50749;51.636;4.948;2023-08-31T10:20:42;101123.19;;;20.14;59.14
59190;BME280;50749;51.636;4.948;2023-08-31T10:23:08;101128.38;;;20.16;58.73
59190;BME280;50749;51.636;4.948;2023-08-31T10:31:07;101120.47;;;20.18;58.24
59190;BME280;50749;51.636;4.948;2023-08-31T10:33:40;101124.84;;;20.19;58.31
59190;BME280;50749;51.636;4.948;2023-08-31T10:38:38;101120.13;;;20.19;58.00
59190;BME280;50749;51.636;4.948;2023-08-31T10:52:15;101123.31;;;20.21;58.15
59190;BME280;50749;51.636;4.948;2023-08-31T10:54:46;101126.88;;;20.22;57.56
59190;BME280;50749;51.636;4.948;2023-08-31T10:57:12;101118.56;;;20.22;57.88
59190;BME280;50749;51.636;4.948;2023-08-31T10:59:46;101120.19;;;20.23;57.52
59190;BME280;50749;51.636;4.948;2023-08-31T11:07:30;101124.13;;;20.22;56.58
59190;BME280;50749;51.636;4.948;2023-08-31T11:10:12;101125.31;;;20.21;56.50
59190;BME280;50749;51.636;4.948;2023-08-31T11:12:40;101120.91;;;20.20;56.67
59190;BME280;50749;51.636;4.948;2023-08-31T11:15:06;101135.50;;;20.17;56.33
59190;BME280;50749;51.636;4.948;2023-08-31T11:17:33;101141.44;;;20.15;56.17
59190;BME280;50749;51.636;4.948;2023-08-31T11:20:00;101145.75;;;20.13;56.25
59190;BME280;50749;51.636;4.948;2023-08-31T11:22:26;101138.59;;;20.12;56.54
59190;BME280;50749;51.636;4.948;2023-08-31T11:24:53;101156.03;;;20.12;56.18
59190;BME280;50749;51.636;4.948;2023-08-31T11:27:20;101138.94;;;20.10;56.34
59190;BME280;50749;51.636;4.948;2023-08-31T11:29:46;101140.13;;;20.09;56.02
59190;BME280;50749;51.636;4.948;2023-08-31T11:32:13;101135.38;;;20.10;56.23
59190;BME280;50749;51.636;4.948;2023-08-31T11:34:43;101135.38;;;20.10;56.55
59190;BME280;50749;51.636;4.948;2023-08-31T11:37:11;101142.09;;;20.09;56.22
59190;BME280;50749;51.636;4.948;2023-08-31T11:39:51;101136.53;;;20.09;55.98
59190;BME280;50749;51.636;4.948;2023-08-31T11:42:19;101137.72;;;20.08;55.98
59190;BME280;50749;51.636;4.948;2023-08-31T11:44:50;101138.88;;;20.07;56.05
59190;BME280;50749;51.636;4.948;2023-08-31T11:47:17;101130.56;;;20.07;56.06
59190;BME280;50749;51.636;4.948;2023-08-31T11:49:45;101122.22;;;20.07;56.20
59190;BME280;50749;51.636;4.948;2023-08-31T11:52:15;101129.75;;;20.06;56.35
59190;BME280;50749;51.636;4.948;2023-08-31T11:54:42;101130.56;;;20.07;56.49
59190;BME280;50749;51.636;4.948;2023-08-31T11:57:10;101130.56;;;20.07;56.30
59190;BME280;50749;51.636;4.948;2023-08-31T11:59:37;101127.50;;;20.12;56.71
59190;BME280;50749;51.636;4.948;2023-08-31T12:02:08;101145.41;;;20.14;56.47
59190;BME280;50749;51.636;4.948;2023-08-31T12:04:44;101136.25;;;20.14;56.74
59190;BME280;50749;51.636;4.948;2023-08-31T12:07:17;101139.47;;;20.16;56.35
59190;BME280;50749;51.636;4.948;2023-08-31T12:09:45;101137.56;;;20.20;55.65
59190;BME280;50749;51.636;4.948;2023-08-31T12:12:13;101138.34;;;20.20;55.72
59190;BME280;50749;51.636;4.948;2023-08-31T12:14:39;101135.94;;;20.19;56.30
59190;BME280;50749;51.636;4.948;2023-08-31T12:17:07;101132.75;;;20.17;56.25
59190;BME280;50749;51.636;4.948;2023-08-31T12:19:36;101141.06;;;20.17;56.24
59190;BME280;50749;51.636;4.948;2023-08-31T12:22:03;101139.91;;;20.18;55.99
59190;BME280;50749;51.636;4.948;2023-08-31T12:24:37;101151.81;;;20.18;55.92
59190;BME280;50749;51.636;4.948;2023-08-31T12:27:04;101147.06;;;20.19;55.99
59190;BME280;50749;51.636;4.948;2023-08-31T12:29:30;101153.44;;;20.19;55.62
59190;BME280;50749;51.636;4.948;2023-08-31T12:31:57;101147.06;;;20.19;55.74
59190;BME280;50749;51.636;4.948;2023-08-31T12:34:23;101151.44;;;20.20;55.75
59190;BME280;50749;51.636;4.948;2023-08-31T12:36:49;101144.28;;;20.19;55.61
59190;BME280;50749;51.636;4.948;2023-08-31T12:39:15;101148.66;;;20.20;55.60
59190;BME280;50749;51.636;4.948;2023-08-31T12:41:41;101154.22;;;20.20;55.31
59190;BME280;50749;51.636;4.948;2023-08-31T12:44:07;101147.50;;;20.21;55.15
59190;BME280;50749;51.636;4.948;2023-08-31T12:46:33;101148.66;;;20.20;55.72
59190;BME280;50749;51.636;4.948;2023-08-31T12:49:01;101148.31;;;20.21;55.54
59190;BME280;50749;51.636;4.948;2023-08-31T12:51:28;101145.53;;;20.21;55.60
59190;BME280;50749;51.636;4.948;2023-08-31T12:53:54;101139.19;;;20.21;55.53
59190;BME280;50749;51.636;4.948;2023-08-31T12:56:20;101139.56;;;20.19;56.16
59190;BME280;50749;51.636;4.948;2023-08-31T12:58:50;101137.56;;;20.20;56.23
59190;BME280;50749;51.636;4.948;2023-08-31T13:01:17;101143.13;;;20.20;55.65
59190;BME280;50749;51.636;4.948;2023-08-31T13:03:44;101143.13;;;20.20;55.70
59190;BME280;50749;51.636;4.948;2023-08-31T13:06:09;101139.19;;;20.21;55.73
59190;BME280;50749;51.636;4.948;2023-08-31T13:08:35;101138.72;;;20.19;56.17
59190;BME280;50749;51.636;4.948;2023-08-31T13:11:03;101141.50;;;20.19;56.29
59190;BME280;50749;51.636;4.948;2023-08-31T13:13:31;101135.94;;;20.19;56.17
59190;BME280;50749;51.636;4.948;2023-08-31T13:15:59;101141.22;;;20.24;56.04
59190;BME280;50749;51.636;4.948;2023-08-31T13:18:25;101141.66;;;20.26;55.56
59190;BME280;50749;51.636;4.948;2023-08-31T13:20:54;101130.97;;;20.28;55.45